createdAt,value
2018-12-22T00:00:21.492Z,86.7
2018-12-22T00:03:51.517Z,86.73
2018-12-22T00:07:21.654Z,86.73
2018-12-22T00:10:51.767Z,86.74
2018-12-22T00:14:21.857Z,86.75
2018-12-22T00:17:51.907Z,86.79
2018-12-22T00:21:22.447Z,86.81
2018-12-22T00:24:52.358Z,86.84
2018-12-22T00:28:22.565Z,86.88
2018-12-22T00:31:52.742Z,86.91
2018-12-22T00:35:22.695Z,86.95
2018-12-22T00:38:52.805Z,86.99
2018-12-22T00:42:22.897Z,87.03
2018-12-22T00:45:52.903Z,87.12
2018-12-22T00:49:23.029Z,87.13
2018-12-22T00:52:53.180Z,87.15
2018-12-22T00:56:23.221Z,87.15
2018-12-22T00:59:53.172Z,87.19
2018-12-22T01:03:23.224Z,87.28
2018-12-22T01:06:53.356Z,87.3
2018-12-22T01:10:23.427Z,87.36
2018-12-22T01:13:53.468Z,87.42
2018-12-22T01:17:23.469Z,87.45
2018-12-22T01:20:53.509Z,87.48
2018-12-22T01:24:23.580Z,87.49
2018-12-22T01:27:53.632Z,87.58
2018-12-22T01:31:23.664Z,87.66
2018-12-22T01:34:53.664Z,87.71
2018-12-22T01:38:23.725Z,87.73
2018-12-22T01:41:53.725Z,87.77
2018-12-22T01:45:23.737Z,87.83
2018-12-22T01:48:53.738Z,87.85
2018-12-22T01:52:24.079Z,87.91
2018-12-22T01:55:54.060Z,87.92
2018-12-22T01:59:24.163Z,87.98
2018-12-22T02:00:16.381Z,88
2018-12-22T02:03:46.442Z,88.02
2018-12-22T02:07:16.435Z,88.11
2018-12-22T02:10:46.544Z,88.15
2018-12-22T02:14:16.636Z,88.23
2018-12-22T02:17:46.724Z,88.27
2018-12-22T02:21:16.717Z,88.3
2018-12-22T02:24:46.888Z,88.35
2018-12-22T02:28:17.019Z,88.44
2018-12-22T02:31:47.025Z,88.5
2018-12-22T02:35:17.182Z,88.57
2018-12-22T02:38:47.212Z,88.63
2018-12-22T02:42:17.414Z,88.68
2018-12-22T02:45:47.344Z,88.71
2018-12-22T02:49:17.294Z,88.7
2018-12-22T02:52:47.226Z,88.72
2018-12-22T02:56:17.259Z,88.74
2018-12-22T02:59:47.222Z,88.84
2018-12-22T03:03:17.274Z,88.86
2018-12-22T03:06:47.261Z,88.95
2018-12-22T03:10:17.402Z,88.98
2018-12-22T03:13:47.471Z,89
2018-12-22T03:17:17.585Z,89.04
2018-12-22T03:20:47.615Z,89.08
2018-12-22T03:24:17.947Z,89.1
2018-12-22T03:27:48.197Z,89.12
2018-12-22T03:31:18.189Z,89.13
2018-12-22T03:34:48.240Z,89.14
2018-12-22T03:38:18.240Z,89.17
2018-12-22T03:41:48.286Z,89.2
2018-12-22T03:45:18.383Z,89.22
2018-12-22T03:48:48.503Z,89.27
2018-12-22T03:52:18.595Z,89.34
2018-12-22T03:55:48.861Z,89.38
2018-12-22T03:59:24.746Z,89.46
2018-12-22T04:00:16.290Z,89.5
2018-12-22T04:03:46.367Z,89.52
2018-12-22T04:07:16.497Z,89.54
2018-12-22T04:10:46.579Z,89.58
2018-12-22T04:14:16.662Z,89.6
2018-12-22T04:17:46.700Z,89.6
2018-12-22T04:21:16.691Z,89.66
2018-12-22T04:24:46.733Z,89.68
2018-12-22T04:28:16.928Z,89.73
2018-12-22T04:31:46.919Z,89.8
2018-12-22T04:35:16.927Z,89.84
2018-12-22T04:38:47.026Z,89.88
2018-12-22T04:42:17.168Z,89.89
2018-12-22T04:45:47.128Z,89.93
2018-12-22T04:49:17.562Z,89.94
2018-12-22T04:52:47.589Z,89.96
2018-12-22T04:56:17.581Z,90.01
2018-12-22T04:59:47.642Z,90.03
2018-12-22T05:03:17.764Z,90.07
2018-12-22T05:06:47.776Z,90.09
2018-12-22T05:10:17.969Z,90.12
2018-12-22T05:13:47.926Z,90.13
2018-12-22T05:17:17.898Z,90.16
2018-12-22T05:20:47.938Z,90.19
2018-12-22T05:24:17.949Z,90.26
2018-12-22T05:27:47.981Z,90.28
2018-12-22T05:31:18.180Z,90.32
2018-12-22T05:34:48.182Z,90.33
2018-12-22T05:38:18.183Z,90.36
2018-12-22T05:41:48.143Z,90.36
2018-12-22T05:45:18.170Z,90.43
2018-12-22T05:48:48.188Z,90.44
2018-12-22T05:52:18.199Z,90.47
2018-12-22T05:55:48.178Z,90.51
2018-12-22T05:59:18.208Z,90.53
2018-12-22T06:00:16.764Z,90.54
2018-12-22T06:03:46.840Z,90.61
2018-12-22T06:07:16.941Z,90.68
2018-12-22T06:10:46.952Z,90.73
2018-12-22T06:14:16.983Z,90.81
2018-12-22T06:17:47.075Z,90.89
2018-12-22T06:21:17.175Z,90.96
2018-12-22T06:24:47.234Z,91.04
2018-12-22T06:28:17.266Z,91.08
2018-12-22T06:31:47.529Z,91.12
2018-12-22T06:35:17.629Z,91.16
2018-12-22T06:38:47.631Z,91.14
2018-12-22T06:42:17.802Z,91.13
2018-12-22T06:45:47.773Z,91.16
2018-12-22T06:49:17.934Z,91.24
2018-12-22T06:52:47.960Z,91.28
2018-12-22T06:56:18.192Z,91.28
2018-12-22T06:59:48.130Z,91.29
2018-12-22T07:03:18.259Z,91.32
2018-12-22T07:06:48.320Z,91.36
2018-12-22T07:10:18.411Z,91.4
2018-12-22T07:13:48.422Z,91.4
2018-12-22T07:17:18.493Z,91.43
2018-12-22T07:20:48.535Z,91.46
2018-12-22T07:24:18.644Z,91.48
2018-12-22T07:27:48.726Z,91.52
2018-12-22T07:31:18.950Z,91.57
2018-12-22T07:34:49.119Z,91.62
2018-12-22T07:38:19.340Z,91.64
2018-12-22T07:41:49.291Z,91.7
2018-12-22T07:45:19.362Z,91.7
2018-12-22T07:48:49.345Z,91.71
2018-12-22T07:52:19.404Z,91.69
2018-12-22T07:55:49.545Z,91.71
2018-12-22T07:59:19.537Z,91.68
2018-12-22T08:00:16.837Z,91.76
2018-12-22T08:03:46.868Z,91.79
2018-12-22T08:07:16.889Z,91.83
2018-12-22T08:10:46.866Z,91.82
2018-12-22T08:14:16.981Z,91.87
2018-12-22T08:17:46.982Z,91.86
2018-12-22T08:21:17.134Z,91.93
2018-12-22T08:24:47.196Z,91.98
2018-12-22T08:28:17.316Z,92.04
2018-12-22T08:31:47.458Z,92.01
2018-12-22T08:35:17.660Z,92.06
2018-12-22T08:38:47.789Z,92.09
2018-12-22T08:42:17.931Z,92.11
2018-12-22T08:45:48.052Z,92.12
2018-12-22T08:49:18.164Z,92.14
2018-12-22T08:52:48.183Z,92.08
2018-12-22T08:56:25.655Z,92.1
2018-12-22T08:59:55.717Z,92.12
2018-12-22T09:03:25.788Z,92.14
2018-12-22T09:06:55.849Z,92.05
2018-12-22T09:10:26.040Z,92.05
2018-12-22T09:13:56.122Z,91.99
2018-12-22T09:17:26.233Z,91.97
2018-12-22T09:20:56.314Z,91.95
2018-12-22T09:24:26.356Z,91.86
2018-12-22T09:27:56.338Z,91.9
2018-12-22T09:31:26.394Z,91.89
2018-12-22T09:34:56.390Z,91.84
2018-12-22T09:38:26.780Z,91.79
2018-12-22T09:41:56.869Z,91.78
2018-12-22T09:45:27.030Z,91.7
2018-12-22T09:48:57.054Z,91.72
2018-12-22T09:52:27.095Z,91.63
2018-12-22T09:55:57.111Z,91.57
2018-12-22T09:59:27.447Z,91.53
2018-12-22T10:00:16.988Z,91.5
2018-12-22T10:03:47.099Z,91.49
2018-12-22T10:07:17.099Z,91.42
2018-12-22T10:10:47.135Z,91.35
2018-12-22T10:14:17.123Z,91.3
2018-12-22T10:17:47.214Z,91.23
2018-12-22T10:21:17.175Z,91.15
2018-12-22T10:24:47.167Z,91.12
2018-12-22T10:28:17.257Z,91.12
2018-12-22T10:31:47.259Z,90.98
2018-12-22T10:35:25.150Z,90.88
2018-12-22T10:38:55.323Z,90.91
2018-12-22T10:42:25.343Z,90.86
2018-12-22T10:45:55.366Z,90.78
2018-12-22T10:49:25.424Z,90.73
2018-12-22T10:52:55.347Z,90.69
2018-12-22T10:56:25.388Z,90.66
2018-12-22T10:59:55.328Z,90.61
2018-12-22T11:03:25.410Z,90.53
2018-12-22T11:06:55.432Z,90.51
2018-12-22T11:10:26.283Z,90.39
2018-12-22T11:13:56.364Z,90.29
2018-12-22T11:17:26.386Z,90.25
2018-12-22T11:20:56.417Z,90.15
2018-12-22T11:24:26.508Z,90.06
2018-12-22T11:27:56.560Z,90.04
2018-12-22T11:31:34.838Z,90.03
2018-12-22T11:35:05.232Z,89.92
2018-12-22T11:38:35.384Z,89.84
2018-12-22T11:42:05.655Z,89.86
2018-12-22T11:45:35.816Z,89.84
2018-12-22T11:49:29.123Z,89.81
2018-12-22T11:52:59.189Z,89.67
2018-12-22T11:56:29.282Z,89.54
2018-12-22T11:59:59.502Z,89.5
2018-12-22T12:00:17.089Z,89.5
2018-12-22T12:03:47.054Z,89.39
2018-12-22T12:07:17.088Z,89.32
2018-12-22T12:10:47.107Z,89.14
2018-12-22T12:14:17.120Z,88.91
2018-12-22T12:20:13.920Z,88.71
2018-12-22T12:23:44.003Z,88.48
2018-12-22T12:27:14.064Z,88.24
2018-12-22T12:30:44.055Z,88.08
2018-12-22T12:34:14.061Z,87.88
2018-12-22T12:37:44.028Z,87.67
2018-12-22T12:41:14.067Z,87.43
2018-12-22T12:44:44.340Z,87.28
2018-12-22T12:48:14.431Z,87.05
2018-12-22T12:51:44.483Z,86.87
2018-12-22T12:55:14.657Z,86.65
2018-12-22T12:58:44.746Z,86.44
2018-12-22T13:02:14.978Z,86.24
2018-12-22T13:05:45.010Z,86.03
2018-12-22T13:09:15.898Z,85.88
2018-12-22T13:12:54.473Z,85.72
2018-12-22T13:16:24.646Z,85.51
2018-12-22T13:19:54.742Z,85.33
2018-12-22T13:23:24.797Z,85.2
2018-12-22T13:26:54.828Z,85.04
2018-12-22T13:30:24.950Z,84.87
2018-12-22T13:33:54.911Z,84.68
2018-12-22T13:37:25.032Z,84.51
2018-12-22T13:40:54.994Z,84.36
2018-12-22T13:44:25.115Z,84.16
2018-12-22T13:47:55.474Z,84.05
2018-12-22T13:51:25.641Z,83.91
2018-12-22T13:54:55.558Z,83.78
2018-12-22T13:58:25.840Z,83.68
2018-12-22T14:00:16.450Z,83.63
2018-12-22T14:03:46.523Z,83.5
2018-12-22T14:07:16.540Z,83.36
2018-12-22T14:10:46.745Z,83.22
2018-12-22T14:14:19.646Z,83.12
2018-12-22T14:17:57.121Z,82.99
2018-12-22T14:21:27.579Z,82.87
2018-12-22T14:24:58.691Z,82.72
2018-12-22T14:28:28.683Z,82.63
2018-12-22T14:31:58.803Z,82.55
2018-12-22T14:35:35.884Z,82.46
2018-12-22T14:39:06.996Z,82.35
2018-12-22T14:42:37.071Z,82.25
2018-12-22T14:46:07.059Z,82.16
2018-12-22T14:49:37.220Z,82.1
2018-12-22T14:53:07.252Z,82.03
2018-12-22T14:56:40.162Z,81.96
2018-12-22T15:00:10.733Z,81.88
2018-12-22T15:03:40.955Z,81.81
2018-12-22T15:07:11.126Z,81.75
2018-12-22T15:10:41.047Z,81.7
2018-12-22T15:14:11.079Z,81.61
2018-12-22T15:17:41.120Z,81.56
2018-12-22T15:21:11.182Z,81.48
2018-12-22T15:24:41.303Z,81.41
2018-12-22T15:28:11.354Z,81.37
2018-12-22T15:31:41.465Z,81.3
2018-12-22T15:35:11.630Z,81.22
2018-12-22T15:38:41.765Z,81.18
2018-12-22T15:42:11.749Z,81.07
2018-12-22T15:45:41.703Z,80.97
2018-12-22T15:49:12.972Z,80.9
2018-12-22T15:52:43.303Z,80.83
2018-12-22T15:56:13.264Z,80.75
2018-12-22T15:59:43.285Z,80.7
2018-12-22T16:00:16.428Z,80.65
2018-12-22T16:03:46.617Z,80.57
2018-12-22T16:07:17.699Z,80.48
2018-12-22T16:10:47.780Z,80.41
2018-12-22T16:14:17.811Z,80.29
2018-12-22T16:17:47.944Z,80.18
2018-12-22T16:21:17.844Z,80.13
2018-12-22T16:24:47.855Z,80.03
2018-12-22T16:28:24.957Z,79.96
2018-12-22T16:31:55.171Z,79.86
2018-12-22T16:35:25.260Z,79.78
2018-12-22T16:38:55.331Z,79.7
2018-12-22T16:42:25.441Z,79.6
2018-12-22T16:45:55.453Z,79.52
2018-12-22T16:49:25.475Z,79.45
2018-12-22T16:52:55.626Z,79.4
2018-12-22T16:56:25.757Z,79.32
2018-12-22T16:59:55.787Z,79.25
2018-12-22T17:03:26.021Z,79.19
2018-12-22T17:06:55.992Z,79.1
2018-12-22T17:10:33.183Z,79.06
2018-12-22T17:14:03.317Z,78.98
2018-12-22T17:17:33.305Z,78.93
2018-12-22T17:21:09.577Z,78.86
2018-12-22T17:24:51.788Z,78.8
2018-12-22T17:28:28.298Z,78.75
2018-12-22T17:31:58.681Z,78.67
2018-12-22T17:35:28.763Z,78.61
2018-12-22T17:38:58.854Z,78.54
2018-12-22T17:42:28.956Z,78.49
2018-12-22T17:45:58.987Z,78.43
2018-12-22T17:49:29.004Z,78.38
2018-12-22T17:52:59.716Z,78.28
2018-12-22T17:56:29.801Z,78.25
2018-12-22T17:59:59.972Z,78.18
2018-12-22T18:00:16.683Z,78.19
2018-12-22T18:03:46.685Z,78.13
2018-12-22T18:07:16.651Z,78.07
2018-12-22T18:10:46.717Z,78.01
2018-12-22T18:14:16.618Z,77.97
2018-12-22T18:17:46.739Z,77.92
2018-12-22T18:21:16.843Z,77.88
2018-12-22T18:24:47.050Z,77.82
2018-12-22T18:28:17.113Z,77.78
2018-12-22T18:31:47.224Z,77.73
2018-12-22T18:35:17.265Z,77.66
2018-12-22T18:38:47.257Z,77.61
2018-12-22T18:42:17.432Z,77.56
2018-12-22T18:45:47.490Z,77.52
2018-12-22T18:49:17.389Z,77.46
2018-12-22T18:52:47.638Z,77.39
2018-12-22T18:56:17.859Z,77.35
2018-12-22T18:59:47.851Z,77.28
2018-12-22T19:03:17.866Z,77.23
2018-12-22T19:06:48.058Z,77.19
2018-12-22T19:10:22.060Z,77.12
2018-12-22T19:13:52.121Z,77.07
2018-12-22T19:17:22.144Z,77
2018-12-22T19:20:52.794Z,76.95
2018-12-22T19:24:22.675Z,76.88
2018-12-22T19:27:52.776Z,76.81
2018-12-22T19:31:22.821Z,76.8
2018-12-22T19:34:52.868Z,76.75
2018-12-22T19:38:22.922Z,76.68
2018-12-22T19:41:52.951Z,76.65
2018-12-22T19:45:22.993Z,76.58
2018-12-22T19:48:53.084Z,76.54
2018-12-22T19:52:23.015Z,76.49
2018-12-22T19:55:53.057Z,76.43
2018-12-22T19:59:23.318Z,76.38
2018-12-22T20:00:16.769Z,76.37
2018-12-22T20:03:46.770Z,76.3
2018-12-22T20:07:16.901Z,76.27
2018-12-22T20:10:46.980Z,76.2
2018-12-22T20:14:17.034Z,76.15
2018-12-22T20:17:47.106Z,76.1
2018-12-22T20:21:17.357Z,76.05
2018-12-22T20:24:47.438Z,75.98
2018-12-22T20:28:17.509Z,75.93
2018-12-22T20:31:47.591Z,75.86
2018-12-22T20:35:17.682Z,75.81
2018-12-22T20:38:47.724Z,75.73
2018-12-22T20:42:17.692Z,75.71
2018-12-22T20:45:47.766Z,75.65
2018-12-22T20:49:17.827Z,75.59
2018-12-22T20:52:47.929Z,75.56
2018-12-22T20:56:17.880Z,75.51
2018-12-22T20:59:48.072Z,75.44
2018-12-22T21:03:19.206Z,75.43
2018-12-22T21:06:49.305Z,75.4
2018-12-22T21:10:19.237Z,75.39
2018-12-22T21:13:49.205Z,75.34
2018-12-22T21:17:19.139Z,75.32
2018-12-22T21:20:49.171Z,75.31
2018-12-22T21:24:19.236Z,75.3
2018-12-22T21:27:49.283Z,75.3
2018-12-22T21:31:19.263Z,75.26
2018-12-22T21:34:49.396Z,75.21
2018-12-22T21:38:19.497Z,75.19
2018-12-22T21:41:49.365Z,75.18
2018-12-22T21:45:19.439Z,75.16
2018-12-22T21:48:49.472Z,75.12
2018-12-22T21:52:19.524Z,75.1
2018-12-22T21:55:49.635Z,75.07
2018-12-22T21:59:19.639Z,75.07
2018-12-22T22:00:17.646Z,75.08
2018-12-22T22:03:47.759Z,75.07
2018-12-22T22:07:17.930Z,75.05
2018-12-22T22:10:48.131Z,75.02
2018-12-22T22:14:18.148Z,75.02
2018-12-22T22:17:48.394Z,74.99
2018-12-22T22:21:18.356Z,74.94
2018-12-22T22:24:48.567Z,74.93
2018-12-22T22:28:18.640Z,74.94
2018-12-22T22:31:48.750Z,74.92
2018-12-22T22:35:18.942Z,74.93
2018-12-22T22:38:48.918Z,74.89
2018-12-22T22:42:19.164Z,74.89
2018-12-22T22:45:49.175Z,74.86
2018-12-22T22:49:19.308Z,74.86
2018-12-22T22:52:49.396Z,74.84
2018-12-22T22:56:19.450Z,74.82
2018-12-22T22:59:49.511Z,74.79
2018-12-22T23:03:19.672Z,74.79
2018-12-22T23:06:49.789Z,74.77
2018-12-22T23:10:19.775Z,74.78
2018-12-22T23:13:49.867Z,74.77
2018-12-22T23:17:19.997Z,74.74
2018-12-22T23:20:50.069Z,74.75
2018-12-22T23:24:20.173Z,74.73
2018-12-22T23:27:50.161Z,74.7
2018-12-22T23:31:20.172Z,74.69
2018-12-22T23:34:50.164Z,74.67
2018-12-22T23:38:20.155Z,74.66
2018-12-22T23:41:50.146Z,74.65
2018-12-22T23:45:20.258Z,74.63
2018-12-22T23:48:50.330Z,74.63
2018-12-22T23:52:20.273Z,74.57
2018-12-22T23:55:50.323Z,74.6
2018-12-22T23:59:20.467Z,74.57
